Time;durP1;ratioP1;P1;durP2;ratioP2;P2;SDS_P1;SDS_P2;PMS_P1;PMS_P2;Temp;Humidity;BMP_temperature;BMP_pressure;BME280_temperature;BME280_humidity;BME280_pressure;Samples;Min_cycle;Max_cycle;Signal;HPM_P1;HPM_P2
2023/03/21 00:04:04;;;;;;;48.80;34.53;;;;;;;;;;10484912;28;20416;-87
2023/03/21 00:09:06;;;;;;;49.63;35.27;;;;;;;;;;10475607;28;20455;-88
2023/03/21 00:14:13;;;;;;;48.90;34.17;;;;;;;;;;10466599;28;20426;-88
2023/03/21 00:19:16;;;;;;;44.13;32.00;;;;;;;;;;10470297;28;20412;-88
2023/03/21 00:24:18;;;;;;;50.10;33.13;;;;;;;;;;10477986;28;20912;-88
2023/03/21 00:29:20;;;;;;;46.17;32.30;;;;;;;;;;10463506;28;20426;-86
2023/03/21 00:34:23;;;;;;;46.20;32.27;;;;;;;;;;10471961;28;20742;-88
2023/03/21 00:39:25;;;;;;;44.27;32.37;;;;;;;;;;10478499;28;20739;-87
2023/03/21 00:44:27;;;;;;;47.63;32.38;;;;;;;;;;10464723;28;20437;-88
2023/03/21 00:49:32;;;;;;;46.03;33.47;;;;;;;;;;10471367;28;20450;-88
2023/03/21 00:54:34;;;;;;;46.63;32.60;;;;;;;;;;10459798;28;20408;-88
2023/03/21 00:59:37;;;;;;;48.75;33.47;;;;;;;;;;10474092;28;20408;-88
2023/03/21 01:04:40;;;;;;;48.20;33.45;;;;;;;;;;10462408;28;20404;-86
2023/03/21 01:09:42;;;;;;;47.03;33.85;;;;;;;;;;10472434;28;20431;-87
2023/03/21 01:14:44;;;;;;;46.25;33.03;;;;;;;;;;10458057;28;20916;-87
2023/03/21 01:19:47;;;;;;;46.97;32.83;;;;;;;;;;10469961;28;20403;-88
2023/03/21 01:24:49;;;;;;;49.70;33.87;;;;;;;;;;10467663;28;20862;-87
2023/03/21 01:29:51;;;;;;;50.17;34.95;;;;;;;;;;10466832;28;20893;-88
2023/03/21 01:34:55;;;;;;;55.58;37.60;;;;;;;;;;10466689;28;20871;-88
2023/03/21 01:39:56;;;;;;;53.93;35.93;;;;;;;;;;10465435;28;20492;-88
2023/03/21 01:45:02;;;;;;;52.00;36.83;;;;;;;;;;10464630;28;20412;-86
2023/03/21 01:50:06;;;;;;;53.17;37.45;;;;;;;;;;10477200;28;20419;-87
2023/03/21 01:55:12;;;;;;;53.95;36.85;;;;;;;;;;10468862;28;20406;-87
2023/03/21 02:00:15;;;;;;;56.20;38.15;;;;;;;;;;10468217;28;20469;-87
2023/03/21 02:05:21;;;;;;;56.05;38.78;;;;;;;;;;10469090;28;20402;-87
2023/03/21 02:10:24;;;;;;;55.40;38.00;;;;;;;;;;10470012;28;20870;-88
2023/03/21 02:15:27;;;;;;;60.88;39.80;;;;;;;;;;10464247;28;20853;-87
2023/03/21 02:21:11;;;;;;;55.95;38.58;;;;;;;;;;10468079;28;20453;-87
2023/03/21 02:26:45;;;;;;;54.85;37.45;;;;;;;;;;10423546;28;20392;-87
2023/03/21 02:31:58;;;;;;;57.97;38.72;;;;;;;;;;10467205;28;20428;-88
2023/03/21 02:37:28;;;;;;;53.72;37.13;;;;;;;;;;10480420;28;20912;-87
2023/03/21 02:42:39;;;;;;;54.80;36.65;;;;;;;;;;10451088;28;20407;-88
2023/03/21 02:47:46;;;;;;;51.72;35.45;;;;;;;;;;10473964;28;20764;-88
2023/03/21 02:52:52;;;;;;;52.07;35.80;;;;;;;;;;10466721;28;20901;-87
2023/03/21 02:57:56;;;;;;;50.33;34.33;;;;;;;;;;10468767;28;20400;-87
2023/03/21 03:02:58;;;;;;;49.80;33.40;;;;;;;;;;10469681;28;20485;-88
2023/03/21 03:08:17;;;;;;;52.13;34.90;;;;;;;;;;10472818;28;20407;-88
2023/03/21 03:13:31;;;;;;;53.00;35.37;;;;;;;;;;10469766;28;20418;-87
2023/03/21 03:18:41;;;;;;;50.95;35.30;;;;;;;;;;10460875;28;20399;-88
2023/03/21 03:23:48;;;;;;;52.25;36.13;;;;;;;;;;10466998;28;20406;-88
2023/03/21 03:28:53;;;;;;;50.92;35.28;;;;;;;;;;10475428;28;20448;-87
2023/03/21 03:33:58;;;;;;;46.90;33.38;;;;;;;;;;10466260;28;20403;-88
2023/03/21 03:39:04;;;;;;;54.43;35.07;;;;;;;;;;10471096;28;20869;-87
2023/03/21 03:44:06;;;;;;;49.63;33.47;;;;;;;;;;10480643;28;20535;-87
2023/03/21 03:49:14;;;;;;;49.58;33.88;;;;;;;;;;10479456;28;20414;-87
2023/03/21 03:54:21;;;;;;;46.55;32.92;;;;;;;;;;10462524;28;20406;-86
2023/03/21 03:59:24;;;;;;;46.15;32.00;;;;;;;;;;10461759;28;20800;-87
2023/03/21 04:04:28;;;;;;;46.90;32.13;;;;;;;;;;10469140;28;20427;-87
2023/03/21 04:09:31;;;;;;;48.73;31.93;;;;;;;;;;10479839;28;20431;-88
2023/03/21 04:14:33;;;;;;;46.53;31.87;;;;;;;;;;10468277;28;20408;-87
2023/03/21 04:19:35;;;;;;;47.07;31.97;;;;;;;;;;10468228;28;20450;-87
2023/03/21 04:24:38;;;;;;;46.15;30.88;;;;;;;;;;10461974;28;20870;-87
2023/03/21 04:29:40;;;;;;;45.87;30.67;;;;;;;;;;10471784;28;20458;-88
2023/03/21 04:34:48;;;;;;;43.97;30.50;;;;;;;;;;10487401;28;20404;-87
2023/03/21 04:39:51;;;;;;;45.08;30.13;;;;;;;;;;10464639;28;20408;-88
2023/03/21 04:44:53;;;;;;;42.67;30.95;;;;;;;;;;10459123;28;20917;-87
2023/03/21 04:49:56;;;;;;;45.83;30.35;;;;;;;;;;10472416;28;20848;-87
2023/03/21 04:55:00;;;;;;;42.30;30.13;;;;;;;;;;10476525;28;20395;-87
2023/03/21 05:00:07;;;;;;;42.85;29.92;;;;;;;;;;10470937;28;20424;-87
2023/03/21 05:05:12;;;;;;;43.17;29.77;;;;;;;;;;10466603;28;20663;-87
2023/03/21 05:10:16;;;;;;;41.97;29.85;;;;;;;;;;10457482;28;20443;-87
2023/03/21 05:15:18;;;;;;;44.22;30.15;;;;;;;;;;10470262;28;20941;-87
2023/03/21 05:20:20;;;;;;;45.95;30.98;;;;;;;;;;10473097;28;20890;-87
2023/03/21 05:25:33;;;;;;;44.92;29.80;;;;;;;;;;10461331;28;20421;-86
2023/03/21 05:30:35;;;;;;;44.25;28.92;;;;;;;;;;10448772;28;20434;-87
2023/03/21 05:35:37;;;;;;;39.58;26.10;;;;;;;;;;10476859;28;20404;-87
2023/03/21 05:40:40;;;;;;;36.33;25.33;;;;;;;;;;10466198;28;20397;-85
2023/03/21 05:45:43;;;;;;;37.35;25.98;;;;;;;;;;10470987;28;20400;-87
2023/03/21 05:50:45;;;;;;;37.10;24.27;;;;;;;;;;10474783;28;20426;-87
2023/03/21 05:55:48;;;;;;;41.00;26.52;;;;;;;;;;10458468;28;20410;-87
2023/03/21 06:00:50;;;;;;;39.33;26.13;;;;;;;;;;10473353;28;20491;-88
2023/03/21 06:05:52;;;;;;;40.20;26.90;;;;;;;;;;10467727;28;20494;-88
2023/03/21 06:10:55;;;;;;;39.72;27.05;;;;;;;;;;10458702;28;20413;-88
2023/03/21 06:15:57;;;;;;;44.35;27.88;;;;;;;;;;10461642;28;20403;-88
2023/03/21 06:20:59;;;;;;;47.40;30.50;;;;;;;;;;10468181;28;20436;-88
2023/03/21 06:26:02;;;;;;;51.60;32.78;;;;;;;;;;10456775;28;20404;-88
2023/03/21 06:31:04;;;;;;;48.55;32.35;;;;;;;;;;10448193;28;20441;-87
2023/03/21 06:36:07;;;;;;;48.03;33.20;;;;;;;;;;10431548;28;20403;-86
2023/03/21 06:41:10;;;;;;;52.65;34.38;;;;;;;;;;10469451;28;20408;-86
2023/03/21 06:46:12;;;;;;;46.38;31.60;;;;;;;;;;10474205;28;20491;-83
2023/03/21 06:51:16;;;;;;;46.07;31.67;;;;;;;;;;10472825;28;20933;-84
2023/03/21 06:56:19;;;;;;;48.03;32.30;;;;;;;;;;10459858;28;20429;-85
2023/03/21 07:01:21;;;;;;;50.33;33.95;;;;;;;;;;10477948;28;20948;-87
2023/03/21 07:06:25;;;;;;;48.63;30.70;;;;;;;;;;10466423;28;20416;-87
2023/03/21 07:11:28;;;;;;;44.63;29.83;;;;;;;;;;10470614;28;20423;-84
2023/03/21 07:16:30;;;;;;;42.57;30.03;;;;;;;;;;10482854;28;20404;-84
2023/03/21 07:21:32;;;;;;;44.17;29.67;;;;;;;;;;10463251;28;20407;-84
2023/03/21 07:26:35;;;;;;;46.45;30.65;;;;;;;;;;10468143;28;20858;-84
2023/03/21 07:31:38;;;;;;;46.30;29.55;;;;;;;;;;10478236;28;20433;-84
2023/03/21 07:36:40;;;;;;;44.10;29.13;;;;;;;;;;10465155;28;20400;-83
2023/03/21 07:41:43;;;;;;;42.40;27.63;;;;;;;;;;10465694;28;20447;-84
2023/03/21 07:46:45;;;;;;;41.92;28.00;;;;;;;;;;10463639;28;20453;-84
2023/03/21 07:51:47;;;;;;;39.97;26.73;;;;;;;;;;10469048;28;20872;-84
2023/03/21 07:56:50;;;;;;;40.95;27.60;;;;;;;;;;10465744;28;20410;-84
2023/03/21 08:01:52;;;;;;;42.70;27.38;;;;;;;;;;10459808;28;20420;-84
2023/03/21 08:06:54;;;;;;;41.10;27.17;;;;;;;;;;10453613;28;20421;-86
2023/03/21 08:11:57;;;;;;;39.35;25.48;;;;;;;;;;10467246;28;20805;-83
2023/03/21 08:16:59;;;;;;;30.60;22.15;;;;;;;;;;10474811;28;20408;-85
2023/03/21 08:22:01;;;;;;;37.80;24.40;;;;;;;;;;10455448;28;20412;-84
2023/03/21 08:27:04;;;;;;;36.38;24.70;;;;;;;;;;10466290;28;20467;-85
2023/03/21 08:32:06;;;;;;;40.95;26.48;;;;;;;;;;10471238;28;20507;-85
2023/03/21 08:37:08;;;;;;;35.42;23.17;;;;;;;;;;10454236;28;20749;-84
2023/03/21 08:42:13;;;;;;;126.20;35.83;;;;;;;;;;10462266;28;20776;-85
2023/03/21 08:47:15;;;;;;;41.55;23.90;;;;;;;;;;10449279;28;20411;-84
2023/03/21 08:52:17;;;;;;;35.25;22.98;;;;;;;;;;10452358;28;20481;-85
2023/03/21 08:57:21;;;;;;;34.90;21.30;;;;;;;;;;10459722;28;20458;-87
2023/03/21 09:02:23;;;;;;;33.43;21.27;;;;;;;;;;10471556;28;20487;-87
2023/03/21 09:07:26;;;;;;;32.50;20.77;;;;;;;;;;10458750;28;20886;-86
2023/03/21 09:12:30;;;;;;;28.63;19.15;;;;;;;;;;10460836;28;20487;-85
2023/03/21 09:17:32;;;;;;;27.45;20.73;;;;;;;;;;10430257;28;20447;-87
2023/03/21 09:22:35;;;;;;;30.73;21.20;;;;;;;;;;10454206;28;20966;-87
2023/03/21 09:27:38;;;;;;;28.15;19.95;;;;;;;;;;10472277;22;20481;-87
2023/03/21 09:32:40;;;;;;;28.17;19.88;;;;;;;;;;10483083;28;20422;-87
2023/03/21 09:37:43;;;;;;;24.77;17.02;;;;;;;;;;10484476;28;20413;-87
2023/03/21 09:42:58;;;;;;;23.13;16.33;;;;;;;;;;10481264;28;20462;-85
2023/03/21 09:48:01;;;;;;;29.13;18.20;;;;;;;;;;10482756;28;20413;-87
2023/03/21 09:53:06;;;;;;;26.03;18.50;;;;;;;;;;10468825;28;21369;-86
2023/03/21 09:58:20;;;;;;;23.80;16.10;;;;;;;;;;10473261;28;20479;-86
2023/03/21 10:03:25;;;;;;;23.27;17.23;;;;;;;;;;10476743;28;20497;-87
2023/03/21 10:08:32;;;;;;;25.37;17.60;;;;;;;;;;10482812;28;20419;-87
2023/03/21 10:13:42;;;;;;;26.77;17.88;;;;;;;;;;10480083;28;20453;-87
2023/03/21 10:18:45;;;;;;;22.87;16.53;;;;;;;;;;10480469;28;20402;-85
2023/03/21 10:23:50;;;;;;;22.60;16.83;;;;;;;;;;10483909;28;20484;-85
2023/03/21 10:28:55;;;;;;;25.80;17.52;;;;;;;;;;10476183;28;20410;-87
2023/03/21 10:34:02;;;;;;;22.73;17.08;;;;;;;;;;10473612;28;20468;-85
2023/03/21 10:39:13;;;;;;;21.67;16.48;;;;;;;;;;10476522;28;20418;-87
2023/03/21 10:44:19;;;;;;;23.35;16.33;;;;;;;;;;10476894;28;20426;-87
2023/03/21 10:49:21;;;;;;;20.90;16.20;;;;;;;;;;10461592;28;20502;-86
2023/03/21 10:54:28;;;;;;;22.23;15.98;;;;;;;;;;10474260;28;20452;-87
2023/03/21 10:59:40;;;;;;;20.92;14.77;;;;;;;;;;10466895;28;20413;-86
2023/03/21 11:04:44;;;;;;;19.15;13.65;;;;;;;;;;10480856;28;20447;-87
2023/03/21 11:09:49;;;;;;;18.85;14.63;;;;;;;;;;10482108;28;20465;-86
2023/03/21 11:14:53;;;;;;;17.88;14.73;;;;;;;;;;10480924;28;20432;-87
2023/03/21 11:19:58;;;;;;;28.63;18.00;;;;;;;;;;10477641;28;20542;-87
2023/03/21 11:25:05;;;;;;;20.10;15.30;;;;;;;;;;10490132;28;20433;-87
2023/03/21 11:30:21;;;;;;;19.40;14.37;;;;;;;;;;10468112;28;20409;-87
2023/03/21 11:35:27;;;;;;;22.05;15.98;;;;;;;;;;10488695;28;20406;-88
2023/03/21 11:40:31;;;;;;;19.52;15.07;;;;;;;;;;10475387;28;20404;-87
2023/03/21 11:45:37;;;;;;;23.00;18.52;;;;;;;;;;10489103;28;20404;-88
2023/03/21 11:50:47;;;;;;;23.92;16.92;;;;;;;;;;10481067;28;20398;-87
2023/03/21 11:56:05;;;;;;;19.08;13.90;;;;;;;;;;10480102;28;20398;-87
2023/03/21 12:01:16;;;;;;;18.02;14.48;;;;;;;;;;10463105;28;20884;-86
2023/03/21 12:06:29;;;;;;;18.38;14.73;;;;;;;;;;10460169;28;20431;-88
2023/03/21 12:11:42;;;;;;;19.52;14.95;;;;;;;;;;10467822;28;20446;-86
2023/03/21 12:16:58;;;;;;;21.70;15.65;;;;;;;;;;10470198;28;20410;-84
2023/03/21 12:22:10;;;;;;;19.35;13.80;;;;;;;;;;10482829;28;20975;-85
2023/03/21 12:27:21;;;;;;;17.53;13.27;;;;;;;;;;10478682;28;21235;-85
2023/03/21 12:32:40;;;;;;;21.60;14.35;;;;;;;;;;10459684;28;21244;-86
2023/03/21 12:37:53;;;;;;;20.90;15.07;;;;;;;;;;10466326;28;20540;-86
2023/03/21 12:43:16;;;;;;;18.27;13.93;;;;;;;;;;10470209;28;20468;-86
2023/03/21 12:48:27;;;;;;;15.52;11.93;;;;;;;;;;10459467;28;20915;-87
2023/03/21 12:53:40;;;;;;;17.45;12.48;;;;;;;;;;10437047;28;20419;-87
2023/03/21 12:58:46;;;;;;;13.98;10.25;;;;;;;;;;10478862;28;20414;-87
2023/03/21 13:04:06;;;;;;;13.80;9.47;;;;;;;;;;10471783;28;20445;-88
2023/03/21 13:09:16;;;;;;;15.17;10.83;;;;;;;;;;10486697;28;20417;-87
2023/03/21 13:14:24;;;;;;;18.15;12.77;;;;;;;;;;10480795;28;20448;-87
2023/03/21 13:19:34;;;;;;;16.40;12.50;;;;;;;;;;10484823;28;20398;-87
2023/03/21 13:24:42;;;;;;;16.23;11.97;;;;;;;;;;10468625;28;20406;-86
2023/03/21 13:29:48;;;;;;;15.90;12.35;;;;;;;;;;10486112;28;20417;-86
2023/03/21 13:34:57;;;;;;;15.63;11.50;;;;;;;;;;10481077;28;20483;-87
2023/03/21 13:40:08;;;;;;;15.77;11.53;;;;;;;;;;10486506;28;20489;-86
2023/03/21 13:45:22;;;;;;;14.80;12.02;;;;;;;;;;10481528;28;20489;-87
2023/03/21 13:50:35;;;;;;;14.87;12.00;;;;;;;;;;10478546;28;20771;-86
2023/03/21 13:55:42;;;;;;;17.13;13.05;;;;;;;;;;10485048;28;20426;-86
2023/03/21 14:00:44;;;;;;;16.70;12.50;;;;;;;;;;10479575;28;20929;-87
2023/03/21 14:05:50;;;;;;;17.00;14.13;;;;;;;;;;10481875;28;20434;-87
2023/03/21 14:10:55;;;;;;;18.65;13.43;;;;;;;;;;10482965;28;20878;-87
2023/03/21 14:16:02;;;;;;;18.77;13.23;;;;;;;;;;10484004;28;20409;-86
2023/03/21 14:21:06;;;;;;;18.90;13.33;;;;;;;;;;10485076;28;20414;-86
2023/03/21 14:26:10;;;;;;;18.77;14.10;;;;;;;;;;10490459;28;20405;-86
2023/03/21 14:31:15;;;;;;;15.23;12.00;;;;;;;;;;10482528;28;20406;-85
2023/03/21 14:36:21;;;;;;;13.95;10.43;;;;;;;;;;10483993;28;20406;-85
2023/03/21 14:41:25;;;;;;;15.88;12.80;;;;;;;;;;10489943;28;21230;-86
2023/03/21 14:46:27;;;;;;;18.80;13.90;;;;;;;;;;10484292;28;20931;-86
2023/03/21 14:51:30;;;;;;;18.63;14.35;;;;;;;;;;10391452;28;20424;-87
2023/03/21 14:56:35;;;;;;;19.13;14.40;;;;;;;;;;10487141;28;20573;-86
2023/03/21 15:01:38;;;;;;;18.77;15.40;;;;;;;;;;10489719;28;20481;-85
2023/03/21 15:06:51;;;;;;;18.83;14.07;;;;;;;;;;10489867;28;20402;-86
2023/03/21 15:11:54;;;;;;;17.52;14.52;;;;;;;;;;10492153;28;20471;-86
2023/03/21 15:16:57;;;;;;;19.30;14.37;;;;;;;;;;10482801;28;20429;-87
2023/03/21 15:22:07;;;;;;;18.40;14.45;;;;;;;;;;10485579;28;20409;-86
2023/03/21 15:27:14;;;;;;;22.02;14.43;;;;;;;;;;10488078;28;20439;-89
2023/03/21 15:32:21;;;;;;;16.25;12.65;;;;;;;;;;10477782;28;20491;-88
2023/03/21 15:37:27;;;;;;;17.47;12.70;;;;;;;;;;10485283;28;20411;-88
2023/03/21 15:42:33;;;;;;;16.95;12.43;;;;;;;;;;10479903;28;20829;-88
2023/03/21 15:47:38;;;;;;;17.13;11.83;;;;;;;;;;10486927;28;20823;-88
2023/03/21 15:52:41;;;;;;;15.40;11.93;;;;;;;;;;10488242;28;20450;-88
2023/03/21 15:57:46;;;;;;;16.95;12.32;;;;;;;;;;10488732;28;20406;-88
2023/03/21 16:02:56;;;;;;;121.75;18.02;;;;;;;;;;10489025;28;20414;-88
2023/03/21 16:08:05;;;;;;;18.77;11.80;;;;;;;;;;10484587;28;20828;-88
2023/03/21 16:13:07;;;;;;;15.53;10.93;;;;;;;;;;10458929;28;20427;-88
2023/03/21 16:18:13;;;;;;;17.67;11.60;;;;;;;;;;10472570;28;20404;-87
2023/03/21 16:23:17;;;;;;;14.17;11.00;;;;;;;;;;10467371;28;20533;-88
2023/03/21 16:28:19;;;;;;;15.38;11.00;;;;;;;;;;10464920;28;20399;-88
2023/03/21 16:33:21;;;;;;;17.20;11.53;;;;;;;;;;10479210;28;20419;-87
2023/03/21 16:38:24;;;;;;;18.38;12.30;;;;;;;;;;10441582;28;20396;-88
2023/03/21 16:43:26;;;;;;;20.17;13.65;;;;;;;;;;10469499;28;20770;-88
2023/03/21 16:48:28;;;;;;;20.42;14.05;;;;;;;;;;10482773;28;20398;-88
2023/03/21 16:53:31;;;;;;;20.55;14.65;;;;;;;;;;10485460;28;20900;-89
2023/03/21 16:58:33;;;;;;;20.73;14.82;;;;;;;;;;10468148;28;20448;-88
2023/03/21 17:03:36;;;;;;;22.27;16.37;;;;;;;;;;10483481;28;20485;-87
2023/03/21 17:08:40;;;;;;;23.80;16.88;;;;;;;;;;10471468;28;20400;-88
2023/03/21 17:13:42;;;;;;;22.02;16.65;;;;;;;;;;10465757;28;20459;-90
2023/03/21 17:18:50;;;;;;;25.40;16.20;;;;;;;;;;10456118;28;20406;-83
2023/03/21 17:23:54;;;;;;;25.63;17.35;;;;;;;;;;10459636;28;20410;-81
2023/03/21 17:28:57;;;;;;;28.48;19.40;;;;;;;;;;10466841;28;20410;-83
2023/03/21 17:33:58;;;;;;;26.20;18.15;;;;;;;;;;10465691;28;20863;-84
2023/03/21 17:39:03;;;;;;;28.00;19.50;;;;;;;;;;10451792;28;21162;-84
2023/03/21 17:44:05;;;;;;;37.60;22.00;;;;;;;;;;10460357;28;20899;-84
2023/03/21 17:49:08;;;;;;;33.33;21.83;;;;;;;;;;10487412;28;20405;-86
2023/03/21 17:54:11;;;;;;;43.95;22.67;;;;;;;;;;10483082;28;20465;-89
2023/03/21 17:59:14;;;;;;;32.60;22.70;;;;;;;;;;10471560;28;20460;-87
2023/03/21 18:04:16;;;;;;;31.48;22.02;;;;;;;;;;10461763;28;20402;-86
2023/03/21 18:09:19;;;;;;;32.33;22.00;;;;;;;;;;10476249;28;20409;-85
2023/03/21 18:14:22;;;;;;;36.38;24.08;;;;;;;;;;10473925;28;20423;-86
2023/03/21 18:19:23;;;;;;;34.58;22.15;;;;;;;;;;10484024;28;20818;-85
2023/03/21 18:24:28;;;;;;;36.28;23.92;;;;;;;;;;10469817;28;20808;-89
2023/03/21 18:29:31;;;;;;;51.10;28.67;;;;;;;;;;10479372;28;20970;-89
2023/03/21 18:34:34;;;;;;;47.23;28.23;;;;;;;;;;10468759;28;20903;-88
2023/03/21 18:39:37;;;;;;;57.03;32.33;;;;;;;;;;10476486;28;20467;-88
2023/03/21 18:44:44;;;;;;;88.57;45.03;;;;;;;;;;10473229;28;20419;-88
2023/03/21 18:49:46;;;;;;;71.78;39.28;;;;;;;;;;10456989;28;20509;-88
2023/03/21 18:54:49;;;;;;;93.55;48.10;;;;;;;;;;10471475;28;20423;-89
2023/03/21 18:59:51;;;;;;;68.72;39.90;;;;;;;;;;10471198;28;20872;-89
2023/03/21 19:04:56;;;;;;;46.72;30.65;;;;;;;;;;10482725;28;20798;-89
2023/03/21 19:09:59;;;;;;;44.38;29.70;;;;;;;;;;10483271;28;20487;-89
2023/03/21 19:15:00;;;;;;;43.83;29.95;;;;;;;;;;10464202;28;20426;-89
2023/03/21 19:20:03;;;;;;;51.30;32.03;;;;;;;;;;10472081;28;20421;-90
2023/03/21 19:25:08;;;;;;;45.97;30.75;;;;;;;;;;10483798;22;20832;-90
2023/03/21 19:30:12;;;;;;;44.33;28.87;;;;;;;;;;10489726;28;20508;-92
2023/03/21 19:35:14;;;;;;;45.70;29.42;;;;;;;;;;10497313;28;20434;-91
2023/03/21 19:40:18;;;;;;;43.78;30.40;;;;;;;;;;10481270;28;20559;-91
2023/03/21 19:45:20;;;;;;;41.07;28.13;;;;;;;;;;10493282;28;20624;-91
2023/03/21 19:50:27;;;;;;;40.28;28.15;;;;;;;;;;10487189;28;20416;-91
2023/03/21 19:55:30;;;;;;;42.40;28.77;;;;;;;;;;10505264;28;20606;-89
2023/03/21 20:00:32;;;;;;;43.40;28.15;;;;;;;;;;10490379;28;20474;-91
2023/03/21 20:05:34;;;;;;;42.27;29.00;;;;;;;;;;10483149;28;20422;-90
2023/03/21 20:10:38;;;;;;;43.50;29.77;;;;;;;;;;10488320;28;20430;-90
2023/03/21 20:15:40;;;;;;;42.20;28.90;;;;;;;;;;10495882;28;20485;-90
2023/03/21 20:20:42;;;;;;;42.67;30.33;;;;;;;;;;10492086;28;20404;-91
2023/03/21 20:25:47;;;;;;;45.10;31.20;;;;;;;;;;10498049;28;21020;-89
2023/03/21 20:30:52;;;;;;;52.20;33.70;;;;;;;;;;10494764;28;20416;-91
2023/03/21 20:36:01;;;;;;;55.13;37.30;;;;;;;;;;10504154;28;20433;-91
2023/03/21 20:41:06;;;;;;;55.95;36.20;;;;;;;;;;10488012;28;20457;-90
2023/03/21 20:46:09;;;;;;;50.03;33.88;;;;;;;;;;10502526;28;20979;-90
2023/03/21 20:51:12;;;;;;;49.90;33.45;;;;;;;;;;10488954;28;20409;-90
2023/03/21 20:56:16;;;;;;;52.72;34.70;;;;;;;;;;10469382;28;20421;-91
2023/03/21 21:01:18;;;;;;;51.33;34.27;;;;;;;;;;10476280;28;20406;-89
2023/03/21 21:06:21;;;;;;;48.90;33.40;;;;;;;;;;10480876;28;20406;-90
2023/03/21 21:11:25;;;;;;;49.50;34.03;;;;;;;;;;10469127;28;20404;-89
2023/03/21 21:16:27;;;;;;;48.38;33.83;;;;;;;;;;10483192;28;21065;-90
2023/03/21 21:21:29;;;;;;;52.25;33.90;;;;;;;;;;10487045;28;20420;-90
2023/03/21 21:26:33;;;;;;;50.92;34.35;;;;;;;;;;10486519;28;20786;-90
2023/03/21 21:31:35;;;;;;;52.47;33.35;;;;;;;;;;10467123;28;20517;-89
2023/03/21 21:36:37;;;;;;;52.47;34.17;;;;;;;;;;10456460;28;20864;-90
2023/03/21 21:41:41;;;;;;;48.22;34.45;;;;;;;;;;10468040;28;20419;-89
2023/03/21 21:46:43;;;;;;;48.95;32.92;;;;;;;;;;10463405;28;20418;-89
2023/03/21 21:51:48;;;;;;;51.13;33.20;;;;;;;;;;10450667;28;20411;-91
2023/03/21 21:56:52;;;;;;;48.95;33.50;;;;;;;;;;10453264;28;20414;-90
2023/03/21 22:01:55;;;;;;;51.30;33.73;;;;;;;;;;10485540;28;20467;-90
2023/03/21 22:06:57;;;;;;;48.00;33.10;;;;;;;;;;10479134;28;20475;-90
2023/03/21 22:12:00;;;;;;;53.22;34.78;;;;;;;;;;10497476;28;20402;-90
2023/03/21 22:17:02;;;;;;;51.03;35.28;;;;;;;;;;10484163;28;20504;-90
2023/03/21 22:22:04;;;;;;;49.67;35.33;;;;;;;;;;10432279;28;20934;-90
2023/03/21 22:27:07;;;;;;;54.58;36.08;;;;;;;;;;10454189;28;20774;-89
2023/03/21 22:32:09;;;;;;;52.50;35.30;;;;;;;;;;10479318;28;20467;-90
2023/03/21 22:37:11;;;;;;;50.60;34.28;;;;;;;;;;10481038;28;20510;-90
2023/03/21 22:42:15;;;;;;;52.20;34.85;;;;;;;;;;10480086;28;20436;-91
2023/03/21 22:47:17;;;;;;;56.78;35.80;;;;;;;;;;10465907;28;20426;-90
2023/03/21 22:52:19;;;;;;;58.43;37.50;;;;;;;;;;10482032;28;20640;-90
2023/03/21 22:57:22;;;;;;;74.43;42.08;;;;;;;;;;10472824;28;20412;-90
2023/03/21 23:02:24;;;;;;;88.93;46.67;;;;;;;;;;10482075;28;20407;-90
2023/03/21 23:07:26;;;;;;;79.70;45.97;;;;;;;;;;10484070;28;20486;-90
2023/03/21 23:12:29;;;;;;;72.85;45.08;;;;;;;;;;10479111;28;20402;-89
2023/03/21 23:17:32;;;;;;;67.95;40.40;;;;;;;;;;10487057;28;20493;-90
2023/03/21 23:22:35;;;;;;;60.17;40.20;;;;;;;;;;10469516;28;20409;-90
2023/03/21 23:27:38;;;;;;;61.65;39.10;;;;;;;;;;10476013;28;20415;-90
2023/03/21 23:32:40;;;;;;;58.65;38.80;;;;;;;;;;10455850;28;20411;-89
2023/03/21 23:37:50;;;;;;;64.77;41.17;;;;;;;;;;10464027;28;20425;-90
2023/03/21 23:42:54;;;;;;;63.20;41.03;;;;;;;;;;10467771;28;20407;-90
2023/03/21 23:47:56;;;;;;;61.75;39.97;;;;;;;;;;10452641;28;20401;-91
2023/03/21 23:52:58;;;;;;;65.50;42.00;;;;;;;;;;10466947;28;20451;-90
2023/03/21 23:58:03;;;;;;;66.25;42.13;;;;;;;;;;10479007;28;20467;-90
